Time;durP1;ratioP1;P1;durP2;ratioP2;P2;SDS_P1;SDS_P2;PMS_P1;PMS_P2;Temp;Humidity;BMP_temperature;BMP_pressure;BME280_temperature;BME280_humidity;BME280_pressure;Samples;Min_cycle;Max_cycle;Signal;HPM_P1;HPM_P2
2022/08/16 00:02:29;;;;;;;;;;;;;;;;;;5154360;27;48434;-77
2022/08/16 00:04:56;;;;;;;;;;;;;;;;;;5150303;27;41439;-77
2022/08/16 00:07:25;;;;;;;;;;;;;;;;;;5155484;27;44583;-77
2022/08/16 00:09:51;;;;;;;;;;;;;;;;;;5151525;27;48385;-77
2022/08/16 00:12:17;;;;;;;;;;;;;;;;;;5164193;27;44504;-77
2022/08/16 00:14:43;;;;;;;;;;;;;;;;;;5136940;27;45108;-77
2022/08/16 00:17:10;;;;;;;;;;;;;;;;;;5150914;27;41666;-77
2022/08/16 00:19:44;;;;;;;;;;;;;;;;;;5159605;27;46805;-76
2022/08/16 00:22:10;;;;;;;;;;;;;;;;;;5135436;27;45637;-76
2022/08/16 00:24:38;;;;;;;;;;;;;;;;;;5160900;27;41549;-77
2022/08/16 00:27:04;;;;;;;;;;;;;;;;;;5153957;27;46261;-77
2022/08/16 00:29:31;;;;;;;;;;;;;;;;;;5136171;27;47217;-77
2022/08/16 00:31:57;;;;;;;;;;;;;;;;;;5145228;27;41530;-77
2022/08/16 00:34:25;;;;;;;;;;;;;;;;;;5137720;27;46339;-77
2022/08/16 00:37:09;;;;;;;;;;;;;;;;;;5142943;27;42014;-76
2022/08/16 00:39:36;;;;;;;;;;;;;;;;;;5148657;27;47709;-76
2022/08/16 00:42:02;;;;;;;;;;;;;;;;;;5143975;27;48799;-77
2022/08/16 00:44:28;;;;;;;;;;;;;;;;;;5156032;27;44698;-76
2022/08/16 00:47:00;;;;;;;;;;;;;;;;;;5152076;27;46451;-77
2022/08/16 00:49:31;;;;;;;;;;;;;;;;;;5134976;27;45496;-77
2022/08/16 00:52:04;;;;;;;;;;;;;;;;;;5157433;27;41375;-77
2022/08/16 00:54:31;;;;;;;;;;;;;;;;;;5168596;27;47993;-76
2022/08/16 00:56:58;;;;;;;;;;;;;;;;;;5158631;27;42262;-77
2022/08/16 00:59:25;;;;;;;;;;;;;;;;;;5143542;27;47106;-78
2022/08/16 01:01:52;;;;;;;;;;;;;;;;;;5149809;27;46908;-78
2022/08/16 01:04:19;;;;;;;;;;;;;;;;;;5151915;27;42059;-78
2022/08/16 01:06:54;;;;;;;;;;;;;;;;;;5155275;27;45102;-78
2022/08/16 01:09:26;;;;;;;;;;;;;;;;;;5156028;27;44612;-78
2022/08/16 01:11:59;;;;;;;;;;;;;;;;;;5154427;27;44223;-78
2022/08/16 01:14:25;;;;;;;;;;;;;;;;;;5179076;27;44844;-78
2022/08/16 01:16:55;;;;;;;;;;;;;;;;;;5161064;27;49275;-78
2022/08/16 01:19:21;;;;;;;;;;;;;;;;;;5146116;27;47652;-78
2022/08/16 01:21:47;;;;;;;;;;;;;;;;;;5149910;27;45539;-78
2022/08/16 01:24:14;;;;;;;;;;;;;;;;;;5164876;27;43155;-78
2022/08/16 01:27:00;;;;;;;;;;;;;;;;;;5142017;27;20337;-78
2022/08/16 01:29:29;;;;;;;;;;;;;;;;;;5153484;27;47099;-78
2022/08/16 01:32:12;;;;;;;;;;;;;;;;;;5161419;27;44675;-78
2022/08/16 01:34:38;;;;;;;;;;;;;;;;;;5143449;27;45785;-78
2022/08/16 01:37:12;;;;;;;;;;;;;;;;;;5157565;27;48177;-77
2022/08/16 01:39:38;;;;;;;;;;;;;;;;;;5144822;27;42474;-77
2022/08/16 01:42:06;;;;;;;;;;;;;;;;;;5159129;27;47189;-77
2022/08/16 01:44:37;;;;;;;;;;;;;;;;;;5151048;27;43175;-78
2022/08/16 01:47:03;;;;;;;;;;;;;;;;;;5161630;27;45169;-77
2022/08/16 01:49:31;;;;;;;;;;;;;;;;;;5145125;27;48287;-78
2022/08/16 01:52:08;;;;;;;;;;;;;;;;;;5146407;27;43425;-78
2022/08/16 01:54:34;;;;;;;;;;;;;;;;;;5145642;27;45875;-77
2022/08/16 01:57:02;;;;;;;;;;;;;;;;;;5151045;27;46142;-78
2022/08/16 01:59:28;;;;;;;;;;;;;;;;;;5149005;27;42571;-77
2022/08/16 02:01:55;;;;;;;;;;;;;;;;;;5152799;27;46806;-77
2022/08/16 02:04:25;;;;;;;;;;;;;;;;;;5160960;27;41272;-78
2022/08/16 02:07:12;;;;;;;;;;;;;;;;;;5164817;27;19930;-77
2022/08/16 02:09:38;;;;;;;;;;;;;;;;;;5152341;27;45126;-77
2022/08/16 02:12:05;;;;;;;;;;;;;;;;;;5150034;27;41864;-78
2022/08/16 02:14:51;;;;;;;;;;;;;;;;;;5147817;27;19930;-78
2022/08/16 02:17:18;;;;;;;;;;;;;;;;;;5140431;27;46545;-77
2022/08/16 02:19:44;;;;;;;;;;;;;;;;;;5147541;27;41983;-78
2022/08/16 02:22:24;;;;;;;;;;;;;;;;;;5146387;27;44990;-78
2022/08/16 02:24:59;;;;;;;;;;;;;;;;;;5143848;27;41806;-78
2022/08/16 02:27:25;;;;;;;;;;;;;;;;;;5152278;27;47370;-77
2022/08/16 02:29:51;;;;;;;;;;;;;;;;;;5141134;27;48297;-78
2022/08/16 02:32:18;;;;;;;;;;;;;;;;;;5151392;27;43688;-78
2022/08/16 02:35:04;;;;;;;;;;;;;;;;;;5144526;27;20416;-78
2022/08/16 02:37:30;;;;;;;;;;;;;;;;;;5171522;27;48149;-78
2022/08/16 02:40:16;;;;;;;;;;;;;;;;;;5149150;27;42642;-77
2022/08/16 02:42:43;;;;;;;;;;;;;;;;;;5162001;27;46301;-77
2022/08/16 02:45:09;;;;;;;;;;;;;;;;;;5160525;27;45654;-77
2022/08/16 02:47:35;;;;;;;;;;;;;;;;;;5143834;27;44474;-78
2022/08/16 02:50:21;;;;;;;;;;;;;;;;;;5144707;27;19938;-78
2022/08/16 02:53:08;;;;;;;;;;;;;;;;;;5155586;27;19926;-78
2022/08/16 02:55:34;;;;;;;;;;;;;;;;;;5150500;27;44942;-78
2022/08/16 02:58:06;;;;;;;;;;;;;;;;;;5168593;27;46217;-78
2022/08/16 03:00:32;;;;;;;;;;;;;;;;;;5149476;27;42271;-78
2022/08/16 03:03:00;;;;;;;;;;;;;;;;;;5159585;27;46347;-78
2022/08/16 03:05:26;;;;;;;;;;;;;;;;;;5160941;27;46879;-78
2022/08/16 03:07:55;;;;;;;;;;;;;;;;;;5146845;27;44417;-78
2022/08/16 03:10:22;;;;;;;;;;;;;;;;;;5154022;27;47402;-78
2022/08/16 03:12:49;;;;;;;;;;;;;;;;;;5144925;27;43180;-78
2022/08/16 03:15:20;;;;;;;;;;;;;;;;;;5145326;27;44834;-78
2022/08/16 03:17:47;;;;;;;;;;;;;;;;;;5144473;27;45732;-78
2022/08/16 03:20:18;;;;;;;;;;;;;;;;;;5146771;27;44064;-78
2022/08/16 03:22:44;;;;;;;;;;;;;;;;;;5152826;27;47403;-78
2022/08/16 03:25:11;;;;;;;;;;;;;;;;;;5139913;27;45746;-77
2022/08/16 03:27:37;;;;;;;;;;;;;;;;;;5144970;27;42240;-78
2022/08/16 03:30:04;;;;;;;;;;;;;;;;;;5158059;27;45028;-78
2022/08/16 03:32:42;;;;;;;;;;;;;;;;;;5154619;27;42164;-77
2022/08/16 03:35:08;;;;;;;;;;;;;;;;;;5140968;27;44846;-78
2022/08/16 03:37:34;;;;;;;;;;;;;;;;;;5149899;27;45431;-78
2022/08/16 03:40:21;;;;;;;;;;;;;;;;;;5141665;27;19991;-77
2022/08/16 03:42:56;;;;;;;;;;;;;;;;;;5161115;27;48104;-78
2022/08/16 03:45:43;;;;;;;;;;;;;;;;;;5147333;27;19916;-78
2022/08/16 03:48:09;;;;;;;;;;;;;;;;;;5153299;27;42290;-77
2022/08/16 03:50:35;;;;;;;;;;;;;;;;;;5145835;27;46309;-78
2022/08/16 03:53:01;;;;;;;;;;;;;;;;;;5173859;27;46807;-78
2022/08/16 03:55:31;;;;;;;;;;;;;;;;;;5162512;27;45243;-78
2022/08/16 03:58:10;;;;;;;;;;;;;;;;;;5146740;27;46885;-78
2022/08/16 04:00:36;;;;;;;;;;;;;;;;;;5160031;27;41979;-78
2022/08/16 04:03:06;;;;;;;;;;;;;;;;;;5152483;27;47404;-78
2022/08/16 04:05:34;;;;;;;;;;;;;;;;;;5144980;27;45423;-78
2022/08/16 04:08:01;;;;;;;;;;;;;;;;;;5159835;27;43222;-78
2022/08/16 04:10:47;;;;;;;;;;;;;;;;;;5156076;27;19927;-77
2022/08/16 04:13:13;;;;;;;;;;;;;;;;;;5143390;27;45434;-77
2022/08/16 04:15:46;;;;;;;;;;;;;;;;;;5156066;27;46820;-78
2022/08/16 04:18:12;;;;;;;;;;;;;;;;;;5150378;27;48256;-78
2022/08/16 04:20:39;;;;;;;;;;;;;;;;;;5153882;27;43984;-78
2022/08/16 04:23:06;;;;;;;;;;;;;;;;;;5153145;27;46667;-78
2022/08/16 04:25:33;;;;;;;;;;;;;;;;;;5147042;27;44530;-77
2022/08/16 04:27:59;;;;;;;;;;;;;;;;;;5156107;27;42863;-78
2022/08/16 04:30:45;;;;;;;;;;;;;;;;;;5139909;27;19927;-77
2022/08/16 04:33:11;;;;;;;;;;;;;;;;;;5151912;27;47232;-78
2022/08/16 04:35:38;;;;;;;;;;;;;;;;;;5147897;27;45044;-78
2022/08/16 04:38:04;;;;;;;;;;;;;;;;;;5155477;27;47935;-78
2022/08/16 04:40:35;;;;;;;;;;;;;;;;;;5148168;27;43287;-77
2022/08/16 04:43:02;;;;;;;;;;;;;;;;;;5141544;27;45296;-77
2022/08/16 04:45:29;;;;;;;;;;;;;;;;;;5147268;27;48482;-77
2022/08/16 04:48:00;;;;;;;;;;;;;;;;;;5154875;27;41967;-77
2022/08/16 04:50:27;;;;;;;;;;;;;;;;;;5141582;27;46220;-78
2022/08/16 04:52:55;;;;;;;;;;;;;;;;;;5162140;27;45368;-77
2022/08/16 04:55:21;;;;;;;;;;;;;;;;;;5140039;27;41880;-77
2022/08/16 04:57:57;;;;;;;;;;;;;;;;;;5153091;27;46732;-77
2022/08/16 05:00:23;;;;;;;;;;;;;;;;;;5148104;27;43569;-77
2022/08/16 05:02:56;;;;;;;;;;;;;;;;;;5138981;27;47476;-77
2022/08/16 05:05:24;;;;;;;;;;;;;;;;;;5154417;27;45812;-77
2022/08/16 05:07:50;;;;;;;;;;;;;;;;;;5159750;27;42410;-76
2022/08/16 05:10:23;;;;;;;;;;;;;;;;;;5140044;27;46721;-77
2022/08/16 05:12:50;;;;;;;;;;;;;;;;;;5137318;27;44536;-77
2022/08/16 05:15:16;;;;;;;;;;;;;;;;;;5156557;27;43716;-76
2022/08/16 05:17:44;;;;;;;;;;;;;;;;;;5131547;27;46198;-77
2022/08/16 05:20:10;;;;;;;;;;;;;;;;;;5141027;27;47356;-77
2022/08/16 05:22:57;;;;;;;;;;;;;;;;;;5139666;27;19928;-77
2022/08/16 05:25:23;;;;;;;;;;;;;;;;;;5141186;27;45192;-77
2022/08/16 05:27:50;;;;;;;;;;;;;;;;;;5149157;27;44056;-77
2022/08/16 05:30:16;;;;;;;;;;;;;;;;;;5151833;27;43665;-77
2022/08/16 05:33:00;;;;;;;;;;;;;;;;;;5134111;27;45008;-78
2022/08/16 05:35:27;;;;;;;;;;;;;;;;;;5142914;27;42541;-78
2022/08/16 05:37:53;;;;;;;;;;;;;;;;;;5136878;27;44615;-78
2022/08/16 05:40:19;;;;;;;;;;;;;;;;;;5133726;27;46176;-78
2022/08/16 05:42:46;;;;;;;;;;;;;;;;;;5142885;27;43529;-78
2022/08/16 05:45:12;;;;;;;;;;;;;;;;;;5157673;27;46500;-78
2022/08/16 05:47:39;;;;;;;;;;;;;;;;;;5133041;27;44850;-78
2022/08/16 05:50:08;;;;;;;;;;;;;;;;;;5135607;27;45041;-78
2022/08/16 05:52:44;;;;;;;;;;;;;;;;;;5154475;27;47281;-78
2022/08/16 05:55:11;;;;;;;;;;;;;;;;;;5152238;27;45057;-78
2022/08/16 05:57:37;;;;;;;;;;;;;;;;;;5144868;27;47877;-78
2022/08/16 06:00:04;;;;;;;;;;;;;;;;;;5140762;27;45476;-78
2022/08/16 06:02:34;;;;;;;;;;;;;;;;;;5134694;27;44306;-78
2022/08/16 06:05:00;;;;;;;;;;;;;;;;;;5135015;27;46724;-78
2022/08/16 06:07:27;;;;;;;;;;;;;;;;;;5146716;27;41770;-77
2022/08/16 06:09:57;;;;;;;;;;;;;;;;;;5133923;27;46516;-78
2022/08/16 06:12:23;;;;;;;;;;;;;;;;;;5138841;27;45501;-78
2022/08/16 06:14:52;;;;;;;;;;;;;;;;;;5149958;27;41968;-78
2022/08/16 06:17:18;;;;;;;;;;;;;;;;;;5148700;27;45877;-78
2022/08/16 06:19:46;;;;;;;;;;;;;;;;;;5139529;27;44674;-78
2022/08/16 06:22:12;;;;;;;;;;;;;;;;;;5151161;27;43661;-78
2022/08/16 06:24:59;;;;;;;;;;;;;;;;;;5154931;27;19923;-78
2022/08/16 06:27:25;;;;;;;;;;;;;;;;;;5144811;27;42591;-78
2022/08/16 06:29:51;;;;;;;;;;;;;;;;;;5154346;27;44702;-78
2022/08/16 06:32:18;;;;;;;;;;;;;;;;;;5145753;27;46988;-78
2022/08/16 06:34:53;;;;;;;;;;;;;;;;;;5137303;27;43428;-78
2022/08/16 06:37:22;;;;;;;;;;;;;;;;;;5141820;27;48334;-78
2022/08/16 06:39:49;;;;;;;;;;;;;;;;;;5142063;27;44146;-78
2022/08/16 06:42:15;;;;;;;;;;;;;;;;;;5149462;27;43836;-78
2022/08/16 06:44:43;;;;;;;;;;;;;;;;;;5152574;27;46718;-78
2022/08/16 06:47:11;;;;;;;;;;;;;;;;;;5150953;27;44755;-78
2022/08/16 06:49:38;;;;;;;;;;;;;;;;;;5134865;27;47515;-79
2022/08/16 06:52:04;;;;;;;;;;;;;;;;;;5148918;27;46482;-79
2022/08/16 06:54:31;;;;;;;;;;;;;;;;;;5154216;27;41897;-79
2022/08/16 06:56:57;;;;;;;;;;;;;;;;;;5144266;27;43940;-78
2022/08/16 06:59:23;;;;;;;;;;;;;;;;;;5152591;27;46042;-79
2022/08/16 07:01:50;;;;;;;;;;;;;;;;;;5157546;27;41358;-78
2022/08/16 07:04:20;;;;;;;;;;;;;;;;;;5139184;27;45787;-79
2022/08/16 07:06:58;;;;;;;;;;;;;;;;;;5145670;27;45875;-78
2022/08/16 07:09:24;;;;;;;;;;;;;;;;;;5144120;27;43883;-79
2022/08/16 07:11:51;;;;;;;;;;;;;;;;;;5147696;27;46015;-78
2022/08/16 07:14:17;;;;;;;;;;;;;;;;;;5131675;27;44970;-77
2022/08/16 07:16:49;;;;;;;;;;;;;;;;;;5129792;27;45458;-78
2022/08/16 07:19:15;;;;;;;;;;;;;;;;;;5140475;27;48254;-78
2022/08/16 07:21:41;;;;;;;;;;;;;;;;;;5137492;27;43753;-79
2022/08/16 07:24:12;;;;;;;;;;;;;;;;;;5128518;27;47375;-78
2022/08/16 07:26:55;;;;;;;;;;;;;;;;;;5132945;27;48629;-76
2022/08/16 07:29:25;;;;;;;;;;;;;;;;;;5132161;27;44858;-76
2022/08/16 07:31:51;;;;;;;;;;;;;;;;;;5134321;27;43733;-77
2022/08/16 07:34:21;;;;;;;;;;;;;;;;;;5141877;27;42735;-77
2022/08/16 07:37:00;;;;;;;;;;;;;;;;;;5132327;27;45544;-77
2022/08/16 07:39:28;;;;;;;;;;;;;;;;;;5132997;27;46142;-77
2022/08/16 07:41:58;;;;;;;;;;;;;;;;;;5135880;27;43689;-78
2022/08/16 07:44:24;;;;;;;;;;;;;;;;;;5138756;27;46418;-77
2022/08/16 07:46:51;;;;;;;;;;;;;;;;;;5131078;27;47133;-77
2022/08/16 07:49:21;;;;;;;;;;;;;;;;;;5130699;27;42426;-78
2022/08/16 07:51:47;;;;;;;;;;;;;;;;;;5141255;27;45620;-77
2022/08/16 07:54:14;;;;;;;;;;;;;;;;;;5131547;27;45704;-78
2022/08/16 07:56:46;;;;;;;;;;;;;;;;;;5134882;27;47446;-78
2022/08/16 07:59:12;;;;;;;;;;;;;;;;;;5139674;27;47085;-77
2022/08/16 08:01:38;;;;;;;;;;;;;;;;;;5127578;27;44200;-78
2022/08/16 08:04:06;;;;;;;;;;;;;;;;;;5132344;27;46223;-78
2022/08/16 08:06:32;;;;;;;;;;;;;;;;;;5135636;27;46973;-78
2022/08/16 08:08:59;;;;;;;;;;;;;;;;;;5137104;27;42126;-79
2022/08/16 08:11:25;;;;;;;;;;;;;;;;;;5135577;27;47773;-78
2022/08/16 08:13:53;;;;;;;;;;;;;;;;;;5144192;27;48411;-80
2022/08/16 08:16:20;;;;;;;;;;;;;;;;;;5138280;27;43018;-78
2022/08/16 08:25:09;;;;;;;;;;;;;;;;;;5067917;28;19932;-78
2022/08/16 08:27:57;;;;;;;;;;;;;;;;;;5057606;28;20104;-78
2022/08/16 08:30:37;;;;;;;;;;;;;;;;;;5110285;27;45104;-78
2022/08/16 08:33:20;;;;;;;;;;;;;;;;;;5141745;27;44724;-79
2022/08/16 08:39:01;;;;;;;;;;;;;;;;;;5132734;27;20415;-77
2022/08/16 08:41:40;;;;;;;;;;;;;;;;;;5130377;27;47483;-78
2022/08/16 08:44:37;;;;;;;;;;;;;;;;;;5124197;27;19935;-79
2022/08/16 08:47:19;;;;;;;;;;;;;;;;;;5138100;27;20413;-79
2022/08/16 08:49:46;;;;;;;;;;;;;;;;;;5137989;27;47072;-79
2022/08/16 08:52:20;;;;;;;;;;;;;;;;;;5140657;27;44273;-79
2022/08/16 08:55:04;;;;;;;;;;;;;;;;;;5146648;27;46754;-77
2022/08/16 08:57:35;;;;;;;;;;;;;;;;;;5149433;27;47259;-78
2022/08/16 09:00:02;;;;;;;;;;;;;;;;;;5151053;27;43806;-79
2022/08/16 09:02:28;;;;;;;;;;;;;;;;;;5144543;27;46867;-78
2022/08/16 09:04:54;;;;;;;;;;;;;;;;;;5145494;27;40999;-78
2022/08/16 09:07:21;;;;;;;;;;;;;;;;;;5148856;27;46290;-77
2022/08/16 09:09:48;;;;;;;;;;;;;;;;;;5137148;27;47180;-78
2022/08/16 09:12:17;;;;;;;;;;;;;;;;;;5138198;27;43649;-78
2022/08/16 09:15:00;;;;;;;;;;;;;;;;;;5147290;27;46796;-78
2022/08/16 09:17:26;;;;;;;;;;;;;;;;;;5144121;27;45659;-78
2022/08/16 09:20:13;;;;;;;;;;;;;;;;;;5144327;27;19927;-78
2022/08/16 09:22:39;;;;;;;;;;;;;;;;;;5152439;27;44726;-79
2022/08/16 09:25:05;;;;;;;;;;;;;;;;;;5163815;27;48533;-78
2022/08/16 09:27:35;;;;;;;;;;;;;;;;;;5149523;27;46845;-78
2022/08/16 09:30:11;;;;;;;;;;;;;;;;;;5135103;27;44683;-79
2022/08/16 09:32:58;;;;;;;;;;;;;;;;;;5153668;27;19928;-80
2022/08/16 09:35:25;;;;;;;;;;;;;;;;;;5151215;27;47288;-79
2022/08/16 09:37:51;;;;;;;;;;;;;;;;;;5135935;27;45809;-81
2022/08/16 09:40:26;;;;;;;;;;;;;;;;;;5133438;27;43039;-81
2022/08/16 09:42:58;;;;;;;;;;;;;;;;;;5151924;27;46828;-80
2022/08/16 09:45:26;;;;;;;;;;;;;;;;;;5160333;27;46459;-81
2022/08/16 09:47:53;;;;;;;;;;;;;;;;;;5143309;27;41934;-81
2022/08/16 09:50:21;;;;;;;;;;;;;;;;;;5135498;27;47757;-80
2022/08/16 09:52:48;;;;;;;;;;;;;;;;;;5141652;27;45048;-80
2022/08/16 09:55:14;;;;;;;;;;;;;;;;;;5144456;27;47068;-80
2022/08/16 09:57:41;;;;;;;;;;;;;;;;;;5132319;27;46593;-79
2022/08/16 10:00:07;;;;;;;;;;;;;;;;;;5136425;27;43125;-79
2022/08/16 10:02:53;;;;;;;;;;;;;;;;;;5144938;27;20520;-80
2022/08/16 10:05:23;;;;;;;;;;;;;;;;;;5136171;27;47190;-81
2022/08/16 10:07:53;;;;;;;;;;;;;;;;;;5146155;27;43499;-80
2022/08/16 10:10:21;;;;;;;;;;;;;;;;;;5146286;27;47599;-80
2022/08/16 10:13:11;;;;;;;;;;;;;;;;;;5132792;27;44267;-81
2022/08/16 10:15:37;;;;;;;;;;;;;;;;;;5129370;27;45642;-79
2022/08/16 10:18:06;;;;;;;;;;;;;;;;;;5142286;27;48182;-79
2022/08/16 10:20:52;;;;;;;;;;;;;;;;;;5137442;27;19927;-79
2022/08/16 10:23:18;;;;;;;;;;;;;;;;;;5134929;27;46373;-79
2022/08/16 10:25:45;;;;;;;;;;;;;;;;;;5138312;27;48061;-79
2022/08/16 10:28:31;;;;;;;;;;;;;;;;;;5130546;27;20413;-79
2022/08/16 10:31:06;;;;;;;;;;;;;;;;;;5137831;27;44997;-79
2022/08/16 10:33:33;;;;;;;;;;;;;;;;;;5142467;27;34656;-80
2022/08/16 10:35:59;;;;;;;;;;;;;;;;;;5139803;27;46629;-80
2022/08/16 10:38:28;;;;;;;;;;;;;;;;;;5134149;27;46822;-80
2022/08/16 10:40:55;;;;;;;;;;;;;;;;;;5135515;27;42662;-80
2022/08/16 10:43:22;;;;;;;;;;;;;;;;;;5141518;27;44204;-80
2022/08/16 10:45:50;;;;;;;;;;;;;;;;;;5131982;27;47011;-80
2022/08/16 10:48:32;;;;;;;;;;;;;;;;;;5132318;27;43853;-81
2022/08/16 10:51:03;;;;;;;;;;;;;;;;;;5140817;27;47745;-80
2022/08/16 10:53:30;;;;;;;;;;;;;;;;;;5140776;27;47908;-80
2022/08/16 10:55:58;;;;;;;;;;;;;;;;;;5132682;27;46634;-80
2022/08/16 10:58:26;;;;;;;;;;;;;;;;;;5148519;27;46665;-81
2022/08/16 11:00:59;;;;;;;;;;;;;;;;;;5136448;27;43399;-80
2022/08/16 11:03:28;;;;;;;;;;;;;;;;;;5143863;27;45750;-80
2022/08/16 11:06:11;;;;;;;;;;;;;;;;;;5133874;27;46862;-81
2022/08/16 11:08:37;;;;;;;;;;;;;;;;;;5137421;27;43597;-81
2022/08/16 11:11:12;;;;;;;;;;;;;;;;;;5144080;27;46501;-81
2022/08/16 11:13:44;;;;;;;;;;;;;;;;;;5138303;27;48094;-81
2022/08/16 11:16:31;;;;;;;;;;;;;;;;;;5154057;27;19923;-81
2022/08/16 11:19:17;;;;;;;;;;;;;;;;;;5152775;27;19939;-81
2022/08/16 11:21:44;;;;;;;;;;;;;;;;;;5143722;27;41681;-80
2022/08/16 11:24:31;;;;;;;;;;;;;;;;;;5141703;27;20785;-80
2022/08/16 11:27:07;;;;;;;;;;;;;;;;;;5141912;27;48151;-80
2022/08/16 11:29:52;;;;;;;;;;;;;;;;;;5147743;27;43409;-80
2022/08/16 11:32:19;;;;;;;;;;;;;;;;;;5149043;27;46691;-80
2022/08/16 11:34:47;;;;;;;;;;;;;;;;;;5147481;27;48037;-81
2022/08/16 11:37:34;;;;;;;;;;;;;;;;;;5145583;27;20404;-81
2022/08/16 11:40:20;;;;;;;;;;;;;;;;;;5152551;27;20529;-80
2022/08/16 11:42:46;;;;;;;;;;;;;;;;;;5142360;27;41090;-80
2022/08/16 11:45:12;;;;;;;;;;;;;;;;;;5132695;27;46205;-80
2022/08/16 11:47:39;;;;;;;;;;;;;;;;;;5134554;27;46972;-80
2022/08/16 11:50:07;;;;;;;;;;;;;;;;;;5133040;27;43560;-80
2022/08/16 11:52:34;;;;;;;;;;;;;;;;;;5140072;27;46932;-80
2022/08/16 11:55:00;;;;;;;;;;;;;;;;;;5144930;27;45907;-81
2022/08/16 11:57:26;;;;;;;;;;;;;;;;;;5141942;27;44877;-81
2022/08/16 11:59:53;;;;;;;;;;;;;;;;;;5131445;27;47526;-81
2022/08/16 12:02:19;;;;;;;;;;;;;;;;;;5129657;27;47081;-82
2022/08/16 12:04:57;;;;;;;;;;;;;;;;;;5132401;27;46035;-81
2022/08/16 12:07:24;;;;;;;;;;;;;;;;;;5134422;27;46656;-81
2022/08/16 12:09:50;;;;;;;;;;;;;;;;;;5134593;27;44749;-81
2022/08/16 12:12:18;;;;;;;;;;;;;;;;;;5134751;27;47699;-82
2022/08/16 12:14:44;;;;;;;;;;;;;;;;;;5136471;27;46940;-81
2022/08/16 12:17:10;;;;;;;;;;;;;;;;;;5166715;27;44080;-82
2022/08/16 12:19:37;;;;;;;;;;;;;;;;;;5141352;27;47411;-82
2022/08/16 12:22:03;;;;;;;;;;;;;;;;;;5141997;27;46976;-81
2022/08/16 12:24:30;;;;;;;;;;;;;;;;;;5149911;27;43172;-82
2022/08/16 12:26:57;;;;;;;;;;;;;;;;;;5140047;27;46862;-82
2022/08/16 12:29:23;;;;;;;;;;;;;;;;;;5135450;27;43761;-81
2022/08/16 12:31:51;;;;;;;;;;;;;;;;;;5145833;27;46408;-82
2022/08/16 12:34:25;;;;;;;;;;;;;;;;;;5151010;27;47519;-83
2022/08/16 12:36:54;;;;;;;;;;;;;;;;;;5150158;27;43370;-82
2022/08/16 12:39:20;;;;;;;;;;;;;;;;;;5141032;27;44840;-82
2022/08/16 12:41:46;;;;;;;;;;;;;;;;;;5158587;27;48305;-81
2022/08/16 12:44:13;;;;;;;;;;;;;;;;;;5144676;27;45693;-81
2022/08/16 12:48:56;;;;;;;;;;;;;;;;;;5157042;27;46883;-79
2022/08/16 12:49:31;;;;;;;;;;;;;;;;;;5143908;27;42280;-80
2022/08/16 12:51:57;;;;;;;;;;;;;;;;;;5143172;27;46368;-80
2022/08/16 12:54:26;;;;;;;;;;;;;;;;;;5142540;27;45379;-80
2022/08/16 12:56:52;;;;;;;;;;;;;;;;;;5140429;27;45250;-80
2022/08/16 12:59:20;;;;;;;;;;;;;;;;;;5130913;27;47455;-79
2022/08/16 13:01:46;;;;;;;;;;;;;;;;;;5146601;27;47946;-79
2022/08/16 13:04:13;;;;;;;;;;;;;;;;;;5142384;27;44288;-80
2022/08/16 13:06:47;;;;;;;;;;;;;;;;;;5139407;27;44865;-79
2022/08/16 13:09:20;;;;;;;;;;;;;;;;;;5135972;27;43025;-79
2022/08/16 13:11:47;;;;;;;;;;;;;;;;;;5136260;27;46437;-79
2022/08/16 13:14:14;;;;;;;;;;;;;;;;;;5139925;27;47474;-79
2022/08/16 13:16:57;;;;;;;;;;;;;;;;;;5148176;27;45120;-80
2022/08/16 13:19:23;;;;;;;;;;;;;;;;;;5136280;27;47076;-80
2022/08/16 13:21:59;;;;;;;;;;;;;;;;;;5143825;27;47010;-80
2022/08/16 13:24:25;;;;;;;;;;;;;;;;;;5133619;27;44859;-80
2022/08/16 13:26:51;;;;;;;;;;;;;;;;;;5135355;27;44767;-79
2022/08/16 13:29:18;;;;;;;;;;;;;;;;;;5147351;27;48129;-80
2022/08/16 13:31:44;;;;;;;;;;;;;;;;;;5151309;27;46460;-80
2022/08/16 13:34:10;;;;;;;;;;;;;;;;;;5133817;27;48515;-80
2022/08/16 13:36:37;;;;;;;;;;;;;;;;;;5133918;27;43705;-81
2022/08/16 13:39:14;;;;;;;;;;;;;;;;;;5136578;27;48029;-80
2022/08/16 13:41:40;;;;;;;;;;;;;;;;;;5138936;27;44799;-80
2022/08/16 13:44:06;;;;;;;;;;;;;;;;;;5141557;27;43243;-80
2022/08/16 13:46:35;;;;;;;;;;;;;;;;;;5139412;27;44974;-81
2022/08/16 13:49:01;;;;;;;;;;;;;;;;;;5135997;27;45200;-81
2022/08/16 13:51:28;;;;;;;;;;;;;;;;;;5145618;27;42098;-82
2022/08/16 13:53:55;;;;;;;;;;;;;;;;;;5144817;27;46746;-82
2022/08/16 13:56:28;;;;;;;;;;;;;;;;;;5151717;27;42272;-82
2022/08/16 13:58:59;;;;;;;;;;;;;;;;;;5134747;27;46188;-82
2022/08/16 14:01:26;;;;;;;;;;;;;;;;;;5134386;27;46479;-82
2022/08/16 14:03:52;;;;;;;;;;;;;;;;;;5138424;27;43539;-82
2022/08/16 14:06:19;;;;;;;;;;;;;;;;;;5139677;27;46025;-81
2022/08/16 14:08:46;;;;;;;;;;;;;;;;;;5150631;27;49796;-81
2022/08/16 14:11:24;;;;;;;;;;;;;;;;;;5139049;27;44027;-81
2022/08/16 14:13:51;;;;;;;;;;;;;;;;;;5135646;27;46517;-81
2022/08/16 14:16:17;;;;;;;;;;;;;;;;;;5151631;27;42134;-81
2022/08/16 14:18:49;;;;;;;;;;;;;;;;;;5143158;27;44631;-82
2022/08/16 14:21:16;;;;;;;;;;;;;;;;;;5142055;27;46346;-82
2022/08/16 14:23:43;;;;;;;;;;;;;;;;;;5152906;27;43036;-81
2022/08/16 14:26:09;;;;;;;;;;;;;;;;;;5140798;27;47479;-82
2022/08/16 14:28:42;;;;;;;;;;;;;;;;;;5131760;27;38677;-81
2022/08/16 14:31:09;;;;;;;;;;;;;;;;;;5134350;27;44663;-82
2022/08/16 14:33:35;;;;;;;;;;;;;;;;;;5139680;27;44442;-82
2022/08/16 14:36:02;;;;;;;;;;;;;;;;;;5132926;27;45577;-81
2022/08/16 14:38:29;;;;;;;;;;;;;;;;;;5137065;27;47508;-81
2022/08/16 14:41:04;;;;;;;;;;;;;;;;;;5133615;27;46936;-81
2022/08/16 14:43:32;;;;;;;;;;;;;;;;;;5150487;27;43847;-80
2022/08/16 14:45:58;;;;;;;;;;;;;;;;;;5142810;27;47381;-81
2022/08/16 14:48:24;;;;;;;;;;;;;;;;;;5138270;27;48026;-81
2022/08/16 14:50:53;;;;;;;;;;;;;;;;;;5150483;27;41886;-81
2022/08/16 14:53:19;;;;;;;;;;;;;;;;;;5149399;27;45833;-81
2022/08/16 14:55:46;;;;;;;;;;;;;;;;;;5141460;27;46295;-81
2022/08/16 14:58:13;;;;;;;;;;;;;;;;;;5135206;27;46523;-81
2022/08/16 15:00:56;;;;;;;;;;;;;;;;;;5132109;27;19931;-81
2022/08/16 15:03:25;;;;;;;;;;;;;;;;;;5134124;27;44688;-80
2022/08/16 15:05:51;;;;;;;;;;;;;;;;;;5134441;27;45087;-81
2022/08/16 15:08:18;;;;;;;;;;;;;;;;;;5142144;27;48061;-81
2022/08/16 15:10:45;;;;;;;;;;;;;;;;;;5132517;27;43490;-80
2022/08/16 15:13:11;;;;;;;;;;;;;;;;;;5144347;27;46299;-80
2022/08/16 15:15:37;;;;;;;;;;;;;;;;;;5142439;27;45175;-81
2022/08/16 15:18:05;;;;;;;;;;;;;;;;;;5132812;27;42154;-81
2022/08/16 15:20:31;;;;;;;;;;;;;;;;;;5133779;27;45104;-81
2022/08/16 15:22:57;;;;;;;;;;;;;;;;;;5139871;27;43187;-81
2022/08/16 15:25:24;;;;;;;;;;;;;;;;;;5144018;27;47538;-81
2022/08/16 15:27:54;;;;;;;;;;;;;;;;;;5132843;27;47289;-81
2022/08/16 15:30:21;;;;;;;;;;;;;;;;;;5146756;27;43902;-82
2022/08/16 15:33:07;;;;;;;;;;;;;;;;;;5136387;27;19923;-82
2022/08/16 15:35:35;;;;;;;;;;;;;;;;;;5137729;27;45954;-82
2022/08/16 15:38:01;;;;;;;;;;;;;;;;;;5131813;27;44519;-82
2022/08/16 15:40:28;;;;;;;;;;;;;;;;;;5134660;27;46183;-82
2022/08/16 15:42:57;;;;;;;;;;;;;;;;;;5141269;27;41626;-82
2022/08/16 15:48:10;;;;;;;;;;;;;;;;;;5155293;27;45676;-81
2022/08/16 15:50:37;;;;;;;;;;;;;;;;;;5145125;27;43298;-81
2022/08/16 15:53:03;;;;;;;;;;;;;;;;;;5136647;27;47251;-81
2022/08/16 15:55:29;;;;;;;;;;;;;;;;;;5142218;27;46876;-81
2022/08/16 15:58:00;;;;;;;;;;;;;;;;;;5146894;27;42964;-80
2022/08/16 16:00:26;;;;;;;;;;;;;;;;;;5139638;27;47624;-80
2022/08/16 16:02:53;;;;;;;;;;;;;;;;;;5149001;27;45620;-81
2022/08/16 16:05:19;;;;;;;;;;;;;;;;;;5136198;27;47372;-81
2022/08/16 16:07:46;;;;;;;;;;;;;;;;;;5136987;27;44320;-81
2022/08/16 16:10:22;;;;;;;;;;;;;;;;;;5146037;27;41753;-82
2022/08/16 16:12:48;;;;;;;;;;;;;;;;;;5152458;27;47517;-80
2022/08/16 16:15:17;;;;;;;;;;;;;;;;;;5142421;27;48327;-81
2022/08/16 16:17:45;;;;;;;;;;;;;;;;;;5137138;27;43539;-80
2022/08/16 16:20:16;;;;;;;;;;;;;;;;;;5140397;27;47302;-81
2022/08/16 16:22:42;;;;;;;;;;;;;;;;;;5139261;27;47172;-81
2022/08/16 16:25:08;;;;;;;;;;;;;;;;;;5152335;27;43051;-81
2022/08/16 16:27:35;;;;;;;;;;;;;;;;;;5142985;27;46388;-81
2022/08/16 16:30:10;;;;;;;;;;;;;;;;;;5140554;27;44835;-83
2022/08/16 16:32:58;;;;;;;;;;;;;;;;;;5151214;27;46232;-82
2022/08/16 16:35:25;;;;;;;;;;;;;;;;;;5158120;27;45988;-82
2022/08/16 16:37:51;;;;;;;;;;;;;;;;;;5165177;27;45442;-82
2022/08/16 16:40:18;;;;;;;;;;;;;;;;;;5148507;27;47529;-82
2022/08/16 16:42:58;;;;;;;;;;;;;;;;;;5138987;27;47783;-82
2022/08/16 16:45:25;;;;;;;;;;;;;;;;;;5142633;27;43991;-82
2022/08/16 16:47:51;;;;;;;;;;;;;;;;;;5159115;27;46336;-82
2022/08/16 16:50:38;;;;;;;;;;;;;;;;;;5152120;27;43767;-81
2022/08/16 16:53:05;;;;;;;;;;;;;;;;;;5157993;27;46516;-82
2022/08/16 16:55:42;;;;;;;;;;;;;;;;;;5163256;27;48362;-81
2022/08/16 17:01:00;;;;;;;;;;;;;;;;;;5146255;27;44760;-81
2022/08/16 17:03:27;;;;;;;;;;;;;;;;;;5148925;27;45266;-82
2022/08/16 17:05:53;;;;;;;;;;;;;;;;;;5149837;27;43691;-82
2022/08/16 17:08:25;;;;;;;;;;;;;;;;;;5148767;27;44427;-82
2022/08/16 17:10:51;;;;;;;;;;;;;;;;;;5153471;27;40713;-81
2022/08/16 17:13:18;;;;;;;;;;;;;;;;;;5141460;27;45063;-82
2022/08/16 17:15:56;;;;;;;;;;;;;;;;;;5149486;27;45261;-82
2022/08/16 17:18:23;;;;;;;;;;;;;;;;;;5151217;27;46720;-82
2022/08/16 17:21:09;;;;;;;;;;;;;;;;;;5148096;27;19951;-82